Pine Grove, Mississippi
Current Conditions -  °F | °C
As of 6:53 PM on Thursday 18 Dec 2014 (Local Time) from KTUP Reporting Station
Overcast Overcast  
Wind Chill: 46°   Ceiling: 3300
Heat Index: 46°   Visibility: 10mi
Dew Point: 36°   Wind: 3mph
Humidity: 68%   Direction: 50°NE
Pressure: 30.21"   Gusts: NA
Location:  34.1202°N, 88.7439°W
Report Text: KTUP 190053Z 05003KT 10SM OVC033 08/02 A3021 RMK AO2 SLP229 T00780022
Loading
Personal Weather Stations






























Interactive Weather Map New forecast layout! Learn more

10-Day Weather Forecast

Advertisements
Track Severe Weather on mobile